Warren, Connecticut
Current Conditions -  °F | °C
As of 12:15 AM on Friday 21 Nov 2014 (Local Time) from KOXC Reporting Station
Broken Clouds Broken Clouds  
Wind Chill: 23°   Ceiling: 12000
Heat Index: 30°   Visibility: 10mi
Dew Point:   Wind: 8mph
Humidity: 40%   Direction: 290°WNW
Pressure: 29.93"   Gusts: NA
Location:  41.6879°N, 73.3378°W
Report Text: KOXC 210415Z 29007KT 270V330 10SM BKN120 M01/M13 A2993 RMK AO1
Loading
Personal Weather Stations






























Interactive Weather Map New forecast layout! Learn more

10-Day Weather Forecast

Advertisements
Track Severe Weather on mobile